Time;durP1;ratioP1;P1;durP2;ratioP2;P2;SDS_P1;SDS_P2;PMS_P1;PMS_P2;Temp;Humidity;BMP_temperature;BMP_pressure;BME280_temperature;BME280_humidity;BME280_pressure;Samples;Min_cycle;Max_cycle;Signal;HPM_P1;HPM_P2
2022/10/17 00:01:41;;;;;;;15.77;6.93;;;11.30;91.10;;;;;;5035108;28;20891;-85
2022/10/17 00:04:06;;;;;;;16.87;6.67;;;11.30;91.10;;;;;;5017541;28;20272;-84
2022/10/17 00:06:32;;;;;;;17.73;6.33;;;11.30;91.20;;;;;;5017629;28;20180;-85
2022/10/17 00:08:57;;;;;;;17.70;7.00;;;11.30;91.30;;;;;;5035768;28;20219;-85
2022/10/17 00:11:23;;;;;;;19.13;8.13;;;11.40;91.40;;;;;;5034938;28;20212;-85
2022/10/17 00:13:52;;;;;;;18.30;7.03;;;11.30;91.40;;;;;;5035210;28;20275;-84
2022/10/17 00:16:35;;;;;;;19.20;6.63;;;11.40;91.60;;;;;;5017740;28;20204;-85
2022/10/17 00:19:02;;;;;;;17.77;6.50;;;11.40;91.60;;;;;;5017306;28;20706;-85
2022/10/17 00:21:28;;;;;;;12.47;6.10;;;11.40;91.60;;;;;;5034828;28;20665;-84
2022/10/17 00:23:54;;;;;;;18.13;6.57;;;11.40;91.70;;;;;;5034881;28;20235;-85
2022/10/17 00:26:20;;;;;;;12.17;7.03;;;11.50;91.80;;;;;;5017111;28;20187;-85
2022/10/17 00:28:50;;;;;;;11.67;6.13;;;11.50;91.80;;;;;;5016979;28;20180;-86
2022/10/17 00:31:19;;;;;;;12.27;6.40;;;11.50;91.90;;;;;;5016922;28;20633;-84
2022/10/17 00:33:45;;;;;;;11.53;6.50;;;11.50;91.80;;;;;;5017191;28;20547;-84
2022/10/17 00:36:14;;;;;;;13.77;6.57;;;11.50;91.90;;;;;;5016805;28;20180;-84
2022/10/17 00:38:44;;;;;;;17.57;6.53;;;11.50;91.90;;;;;;5016885;28;20575;-84
2022/10/17 00:41:12;;;;;;;13.83;6.00;;;11.50;92.00;;;;;;5016704;28;20212;-84
2022/10/17 00:44:26;;;;;;;11.27;6.60;;;11.50;92.00;;;;;;5034609;28;20181;-84
2022/10/17 00:46:52;;;;;;;16.33;7.20;;;11.50;92.00;;;;;;5034096;28;20242;-84
2022/10/17 00:49:19;;;;;;;14.80;6.67;;;11.50;92.10;;;;;;5034429;28;20238;-84
2022/10/17 00:52:00;;;;;;;14.70;6.10;;;11.50;92.10;;;;;;5016488;28;20242;-84
2022/10/17 00:54:30;;;;;;;20.90;6.37;;;11.60;92.20;;;;;;5034355;28;20161;-84
2022/10/17 00:56:56;;;;;;;12.73;5.83;;;11.60;92.20;;;;;;5034224;28;20226;-84
2022/10/17 00:59:23;;;;;;;16.17;6.37;;;11.60;92.20;;;;;;5016531;28;20272;-84
2022/10/17 01:02:13;;;;;;;14.87;6.10;;;11.70;92.10;;;;;;5016266;28;20220;-84
2022/10/17 01:04:41;;;;;;;18.70;6.30;;;11.80;92.10;;;;;;5007063;28;20196;-84
2022/10/17 01:07:08;;;;;;;15.17;6.53;;;11.80;92.00;;;;;;5034322;28;20685;-84
2022/10/17 01:09:34;;;;;;;15.53;6.97;;;11.80;91.90;;;;;;5033958;28;20230;-84
2022/10/17 01:12:12;;;;;;;19.47;7.57;;;11.80;91.90;;;;;;5033798;28;20204;-84
2022/10/17 01:14:46;;;;;;;15.57;6.37;;;11.80;91.80;;;;;;5033805;28;20169;-84
2022/10/17 01:17:22;;;;;;;24.07;6.03;;;11.80;91.80;;;;;;5016221;28;20169;-84
2022/10/17 01:20:14;;;;;;;17.30;6.30;;;11.80;91.70;;;;;;5034106;28;20164;-84
2022/10/17 01:22:58;;;;;;;14.40;6.23;;;11.80;91.80;;;;;;5015471;28;20169;-84
2022/10/17 01:25:29;;;;;;;16.20;6.37;;;11.80;91.80;;;;;;5033810;28;20580;-84
2022/10/17 01:28:15;;;;;;;14.17;6.67;;;11.80;91.90;;;;;;5033919;28;20210;-83
2022/10/17 01:30:56;;;;;;;16.77;6.27;;;11.80;91.90;;;;;;5015752;28;20690;-84
2022/10/17 01:33:28;;;;;;;14.37;7.03;;;11.80;91.90;;;;;;5033655;28;20161;-84
2022/10/17 01:36:00;;;;;;;16.90;7.10;;;11.90;91.80;;;;;;5015991;28;20164;-84
2022/10/17 01:39:00;;;;;;;16.27;6.30;;;11.80;91.90;;;;;;5015932;28;20671;-84
2022/10/17 01:41:41;;;;;;;13.83;5.93;;;11.90;91.80;;;;;;5015738;28;20521;-84
2022/10/17 01:44:13;;;;;;;14.53;6.70;;;11.90;91.80;;;;;;5033452;28;20244;-84
2022/10/17 01:46:42;;;;;;;15.67;6.37;;;11.90;91.80;;;;;;5033378;28;20196;-84
2022/10/17 01:49:09;;;;;;;13.30;6.37;;;11.90;91.80;;;;;;5015655;28;20180;-84
2022/10/17 01:51:49;;;;;;;10.80;6.63;;;11.90;91.90;;;;;;5033188;28;20638;-84
2022/10/17 01:54:30;;;;;;;16.10;6.13;;;12.00;91.90;;;;;;5016126;28;20204;-84
2022/10/17 01:57:00;;;;;;;14.00;5.90;;;12.00;91.90;;;;;;5033282;28;20157;-84
2022/10/17 01:59:33;;;;;;;16.50;6.37;;;12.00;92.00;;;;;;5015514;28;20173;-84
2022/10/17 02:02:00;;;;;;;17.00;6.10;;;12.00;91.90;;;;;;5015372;28;20220;-84
2022/10/17 02:04:26;;;;;;;14.30;5.63;;;12.10;91.90;;;;;;5015434;28;20181;-84
2022/10/17 02:06:52;;;;;;;12.00;6.00;;;12.10;91.90;;;;;;5015412;28;20243;-84
2022/10/17 02:09:20;;;;;;;13.07;5.97;;;12.20;91.90;;;;;;5033351;28;20173;-84
2022/10/17 02:12:00;;;;;;;10.20;5.40;;;12.20;91.90;;;;;;5015623;28;20702;-84
2022/10/17 02:14:54;;;;;;;13.43;5.67;;;12.20;91.80;;;;;;5033052;28;20214;-84
2022/10/17 02:17:43;;;;;;;10.97;6.43;;;12.20;91.80;;;;;;5016124;28;20191;-84
2022/10/17 02:20:28;;;;;;;8.53;5.57;;;12.30;91.80;;;;;;5033151;28;20161;-84
2022/10/17 02:23:32;;;;;;;9.63;6.23;;;12.30;91.80;;;;;;5015236;28;20176;-84
2022/10/17 02:26:10;;;;;;;10.37;6.27;;;12.30;91.80;;;;;;5015322;28;20168;-84
2022/10/17 02:29:02;;;;;;;11.73;5.73;;;12.30;91.80;;;;;;5033286;28;20235;-84
2022/10/17 02:31:35;;;;;;;13.70;5.80;;;12.30;91.70;;;;;;5011270;28;20315;-84
2022/10/17 02:34:03;;;;;;;11.20;5.80;;;12.30;91.70;;;;;;5035312;28;20563;-84
2022/10/17 02:36:34;;;;;;;9.43;5.90;;;12.30;91.70;;;;;;5019190;28;20177;-84
2022/10/17 02:39:01;;;;;;;9.47;6.20;;;12.30;91.70;;;;;;5019131;28;20168;-84
2022/10/17 02:41:29;;;;;;;12.93;6.30;;;12.30;91.60;;;;;;5019117;28;20623;-84
2022/10/17 02:43:54;;;;;;;9.30;5.80;;;12.30;91.60;;;;;;5019039;28;20172;-84
2022/10/17 02:46:23;;;;;;;15.43;5.93;;;12.30;91.60;;;;;;5019268;28;20199;-84
2022/10/17 02:48:55;;;;;;;8.97;5.70;;;12.30;91.60;;;;;;5018952;28;20179;-84
2022/10/17 02:51:28;;;;;;;20.67;8.30;;;12.30;91.50;;;;;;5018715;28;20213;-84
2022/10/17 02:54:00;;;;;;;11.77;5.03;;;12.30;91.40;;;;;;5018911;28;20283;-84
2022/10/17 02:56:29;;;;;;;15.23;5.53;;;12.30;91.50;;;;;;5036832;28;20169;-84
2022/10/17 02:58:58;;;;;;;14.17;6.20;;;12.30;91.40;;;;;;5018880;28;20177;-84
2022/10/17 03:01:25;;;;;;;13.47;6.00;;;12.30;91.50;;;;;;5018445;28;20208;-84
2022/10/17 03:03:50;;;;;;;7.80;5.20;;;12.30;91.50;;;;;;5018694;28;20173;-84
2022/10/17 03:06:16;;;;;;;9.57;5.50;;;12.30;91.60;;;;;;5036377;28;20598;-84
2022/10/17 03:08:42;;;;;;;12.87;5.20;;;12.30;91.60;;;;;;5036311;28;20239;-84
2022/10/17 03:11:07;;;;;;;11.80;5.77;;;12.30;91.60;;;;;;5036103;28;20205;-84
2022/10/17 03:13:33;;;;;;;13.90;5.50;;;12.40;91.60;;;;;;5036279;28;20172;-84
2022/10/17 03:15:58;;;;;;;9.40;4.73;;;12.50;91.50;;;;;;5036551;28;20541;-84
2022/10/17 03:18:24;;;;;;;13.17;5.43;;;12.50;91.40;;;;;;5036186;28;20247;-84
2022/10/17 03:20:49;;;;;;;10.10;5.00;;;12.60;91.20;;;;;;5018260;28;20742;-83
2022/10/17 03:23:15;;;;;;;12.70;4.77;;;12.60;91.10;;;;;;5018270;28;20226;-84
2022/10/17 03:25:41;;;;;;;11.63;4.70;;;12.70;90.90;;;;;;5018248;28;20591;-84
2022/10/17 03:28:06;;;;;;;9.43;4.47;;;12.70;90.70;;;;;;5018246;28;20667;-84
2022/10/17 03:30:32;;;;;;;9.77;6.03;;;12.80;90.60;;;;;;5035950;28;20239;-84
2022/10/17 03:32:58;;;;;;;7.83;4.40;;;12.80;90.50;;;;;;5018101;28;20230;-84
2022/10/17 03:35:25;;;;;;;9.97;4.80;;;12.80;90.40;;;;;;5035838;28;20517;-84
2022/10/17 03:37:50;;;;;;;11.10;4.93;;;12.80;90.30;;;;;;5018098;28;20200;-84
2022/10/17 03:40:16;;;;;;;12.83;4.37;;;12.80;90.20;;;;;;5017940;28;20204;-84
2022/10/17 03:42:41;;;;;;;7.63;4.30;;;12.80;90.10;;;;;;5017947;28;20666;-84
2022/10/17 03:45:07;;;;;;;10.40;4.33;;;12.80;90.10;;;;;;5017195;28;20526;-84
2022/10/17 03:47:33;;;;;;;8.40;4.17;;;12.80;90.00;;;;;;5035570;28;20296;-84
2022/10/17 03:49:58;;;;;;;8.70;4.73;;;12.80;90.10;;;;;;5017649;28;20183;-84
2022/10/17 03:52:24;;;;;;;12.07;4.80;;;12.80;90.00;;;;;;5017748;28;20188;-84
2022/10/17 03:54:50;;;;;;;15.83;5.40;;;12.80;89.90;;;;;;5017759;28;20173;-84
2022/10/17 03:57:17;;;;;;;11.90;4.50;;;12.80;89.90;;;;;;5035396;28;20251;-84
2022/10/17 03:59:42;;;;;;;8.90;4.53;;;12.90;89.90;;;;;;5017679;28;20270;-84
2022/10/17 04:02:08;;;;;;;9.63;4.70;;;12.90;89.90;;;;;;5035171;28;20243;-84
2022/10/17 04:04:33;;;;;;;9.13;4.50;;;12.90;89.80;;;;;;5017548;28;20187;-84
2022/10/17 04:06:59;;;;;;;9.03;4.50;;;12.90;89.80;;;;;;5017534;28;20555;-84
2022/10/17 04:09:24;;;;;;;8.57;4.20;;;12.80;89.80;;;;;;5017428;28;20177;-84
2022/10/17 04:11:50;;;;;;;9.93;3.70;;;12.80;89.80;;;;;;5017312;28;20209;-85
2022/10/17 04:14:15;;;;;;;6.70;3.97;;;12.80;89.80;;;;;;5017400;28;20181;-84
2022/10/17 04:16:41;;;;;;;6.93;4.20;;;12.80;89.90;;;;;;5017388;28;20173;-84
2022/10/17 04:19:06;;;;;;;10.57;3.90;;;12.80;89.90;;;;;;5017280;28;20173;-84
2022/10/17 04:21:32;;;;;;;5.57;3.93;;;12.80;89.90;;;;;;5017093;28;20201;-84
2022/10/17 04:23:59;;;;;;;7.07;4.67;;;12.80;90.00;;;;;;5034952;28;20543;-84
2022/10/17 04:26:25;;;;;;;7.97;4.00;;;12.80;89.90;;;;;;5035128;28;20177;-84
2022/10/17 04:28:51;;;;;;;8.70;4.13;;;12.80;90.00;;;;;;5034815;28;20262;-84
2022/10/17 04:31:17;;;;;;;6.70;4.27;;;12.80;90.00;;;;;;5016914;28;20351;-84
2022/10/17 04:33:46;;;;;;;15.87;4.37;;;12.70;89.90;;;;;;5034732;28;20165;-84
2022/10/17 04:36:14;;;;;;;8.97;4.00;;;12.80;90.00;;;;;;5016888;28;20184;-84
2022/10/17 04:38:40;;;;;;;8.73;4.43;;;12.70;89.80;;;;;;5016883;28;20641;-84
2022/10/17 04:41:13;;;;;;;6.07;4.13;;;12.70;89.80;;;;;;5034542;28;20275;-84
2022/10/17 04:43:39;;;;;;;5.93;3.80;;;12.60;89.80;;;;;;5016897;28;20173;-84
2022/10/17 04:46:08;;;;;;;6.97;4.17;;;12.50;89.90;;;;;;5034485;28;20219;-84
2022/10/17 04:48:34;;;;;;;7.83;4.13;;;12.50;90.10;;;;;;5016684;28;20176;-84
2022/10/17 04:51:02;;;;;;;7.70;4.70;;;12.50;90.10;;;;;;5034358;28;20207;-84
2022/10/17 04:53:30;;;;;;;6.80;4.90;;;12.40;90.20;;;;;;5034441;28;20192;-84
2022/10/17 04:55:56;;;;;;;9.33;3.77;;;12.40;90.20;;;;;;5016461;28;20544;-84
2022/10/17 04:58:22;;;;;;;6.20;4.17;;;12.40;90.30;;;;;;5033802;28;20176;-84
2022/10/17 05:00:47;;;;;;;6.03;3.90;;;12.50;90.40;;;;;;5016443;28;20220;-84
2022/10/17 05:03:14;;;;;;;5.30;3.97;;;12.50;90.40;;;;;;5016459;28;20204;-84
2022/10/17 05:05:40;;;;;;;6.10;4.20;;;12.50;90.40;;;;;;5034096;28;20172;-84
2022/10/17 05:08:08;;;;;;;7.83;4.10;;;12.50;90.40;;;;;;5016300;28;20173;-85
2022/10/17 05:10:38;;;;;;;9.83;4.43;;;12.50;90.40;;;;;;5033875;28;20227;-84
2022/10/17 05:13:05;;;;;;;8.20;4.03;;;12.60;90.40;;;;;;5016287;28;20169;-84
2022/10/17 05:15:30;;;;;;;8.10;4.10;;;12.50;90.30;;;;;;5016261;28;20659;-84
2022/10/17 05:17:57;;;;;;;6.83;4.17;;;12.50;90.20;;;;;;5033849;28;20169;-84
2022/10/17 05:20:23;;;;;;;4.80;3.70;;;12.50;90.30;;;;;;5016107;28;20180;-84
2022/10/17 05:22:48;;;;;;;11.17;4.33;;;12.50;90.30;;;;;;5033721;28;20665;-84
2022/10/17 05:25:14;;;;;;;7.17;3.60;;;12.40;90.30;;;;;;5033752;28;20255;-84
2022/10/17 05:27:39;;;;;;;10.97;4.47;;;12.30;90.30;;;;;;5016902;28;20176;-85
2022/10/17 05:30:05;;;;;;;5.10;3.90;;;12.30;90.40;;;;;;5015886;28;20201;-84
2022/10/17 05:32:31;;;;;;;4.93;4.37;;;12.30;90.40;;;;;;5033593;28;20614;-84
2022/10/17 05:34:57;;;;;;;7.60;4.00;;;12.30;90.60;;;;;;5033646;28;20199;-84
2022/10/17 05:37:22;;;;;;;7.67;4.17;;;12.30;90.60;;;;;;5015813;28;20610;-84
2022/10/17 05:39:48;;;;;;;6.23;4.40;;;12.20;90.60;;;;;;5033573;28;20656;-84
2022/10/17 05:42:13;;;;;;;7.43;4.20;;;12.20;90.80;;;;;;5033473;28;20197;-84
2022/10/17 05:44:40;;;;;;;8.13;4.43;;;12.20;90.80;;;;;;5015851;28;20271;-84
2022/10/17 05:47:06;;;;;;;6.07;4.63;;;12.20;90.80;;;;;;5033851;28;20207;-84
2022/10/17 05:49:32;;;;;;;7.10;4.70;;;12.20;90.80;;;;;;5015698;28;20177;-85
2022/10/17 05:51:57;;;;;;;5.17;4.50;;;12.20;90.90;;;;;;5015451;28;20732;-85
2022/10/17 05:54:23;;;;;;;6.97;3.90;;;12.20;91.00;;;;;;5015712;28;20223;-84
2022/10/17 05:56:52;;;;;;;4.47;4.07;;;12.10;90.90;;;;;;5015691;28;20318;-84
2022/10/17 05:59:18;;;;;;;8.43;3.97;;;12.20;91.00;;;;;;5015608;28;20659;-85
2022/10/17 06:01:44;;;;;;;6.27;4.27;;;12.10;91.10;;;;;;5033046;28;20232;-84
2022/10/17 06:04:09;;;;;;;4.67;3.77;;;12.20;91.10;;;;;;5015481;28;20639;-85
2022/10/17 06:06:36;;;;;;;5.20;4.20;;;12.10;91.10;;;;;;5033259;28;20184;-84
2022/10/17 06:09:02;;;;;;;6.07;4.17;;;12.10;91.20;;;;;;5015161;28;20223;-85
2022/10/17 06:11:28;;;;;;;5.77;3.97;;;12.10;91.20;;;;;;5033264;28;20213;-85
2022/10/17 06:13:53;;;;;;;7.13;3.80;;;12.20;91.30;;;;;;5015361;28;20204;-84
2022/10/17 06:16:19;;;;;;;7.30;4.23;;;12.20;91.20;;;;;;5033415;28;20259;-84
2022/10/17 06:18:44;;;;;;;7.90;4.17;;;12.20;91.20;;;;;;5015660;28;20255;-84
2022/10/17 06:21:11;;;;;;;5.80;4.13;;;12.20;91.30;;;;;;5015297;28;20739;-85
2022/10/17 06:23:37;;;;;;;7.40;4.40;;;12.20;91.30;;;;;;5015313;28;20181;-84
2022/10/17 06:26:04;;;;;;;10.83;4.10;;;12.30;91.40;;;;;;5015374;28;20180;-84
2022/10/17 06:28:30;;;;;;;8.50;4.30;;;12.30;91.30;;;;;;5015475;28;20271;-84
2022/10/17 06:30:56;;;;;;;6.60;4.10;;;12.30;91.40;;;;;;5032910;28;20288;-84
2022/10/17 06:33:22;;;;;;;8.90;4.73;;;12.30;91.40;;;;;;5015381;28;20364;-84
2022/10/17 06:35:52;;;;;;;7.87;4.57;;;12.40;91.50;;;;;;5015406;28;20173;-84
2022/10/17 06:38:18;;;;;;;13.13;4.37;;;12.40;91.40;;;;;;5033334;28;20528;-85
2022/10/17 06:40:44;;;;;;;6.73;4.37;;;12.50;91.40;;;;;;5033665;28;20219;-85
2022/10/17 06:43:09;;;;;;;5.37;4.10;;;12.50;91.40;;;;;;5033775;28;20673;-84
2022/10/17 06:45:37;;;;;;;12.03;5.33;;;12.50;91.40;;;;;;5033555;28;20172;-84
2022/10/17 06:48:03;;;;;;;7.63;5.40;;;12.50;91.40;;;;;;5033592;28;20577;-85
2022/10/17 06:50:29;;;;;;;5.57;4.13;;;12.60;91.50;;;;;;5033461;28;20185;-85
2022/10/17 06:52:54;;;;;;;9.27;5.03;;;12.60;91.50;;;;;;5033758;28;20226;-85
2022/10/17 06:55:19;;;;;;;9.07;4.80;;;12.70;91.60;;;;;;5033337;28;20172;-85
2022/10/17 06:57:45;;;;;;;5.97;4.50;;;12.70;91.60;;;;;;5015707;28;20176;-85
2022/10/17 07:00:11;;;;;;;9.60;4.90;;;12.80;91.70;;;;;;5015354;28;20184;-85
2022/10/17 07:02:37;;;;;;;8.60;4.40;;;12.80;91.80;;;;;;5015670;28;20199;-85
2022/10/17 07:05:02;;;;;;;14.70;4.50;;;12.90;91.80;;;;;;5015573;28;20185;-85
2022/10/17 07:07:31;;;;;;;7.83;4.80;;;12.90;91.70;;;;;;5033452;28;20554;-85
2022/10/17 07:09:57;;;;;;;9.00;5.60;;;13.00;91.80;;;;;;5033240;28;20251;-85
2022/10/17 07:12:23;;;;;;;7.50;4.87;;;13.00;91.80;;;;;;5033321;28;20280;-85
2022/10/17 07:14:49;;;;;;;6.53;4.70;;;13.10;91.90;;;;;;5015421;28;20223;-85
2022/10/17 07:17:15;;;;;;;8.83;4.60;;;13.20;91.90;;;;;;5033188;28;20173;-85
2022/10/17 07:19:42;;;;;;;8.43;4.80;;;13.20;91.90;;;;;;5015700;28;20560;-84
2022/10/17 07:22:08;;;;;;;6.03;4.70;;;13.20;91.90;;;;;;5018970;28;20193;-85
2022/10/17 07:24:34;;;;;;;8.97;4.70;;;13.30;91.90;;;;;;5036733;28;20300;-85
2022/10/17 07:26:59;;;;;;;9.50;4.77;;;13.30;91.90;;;;;;5036682;28;20194;-85
2022/10/17 07:29:25;;;;;;;14.23;4.00;;;13.30;91.90;;;;;;5036577;28;20180;-85
2022/10/17 07:31:50;;;;;;;7.93;4.07;;;13.40;91.90;;;;;;5018858;28;20686;-85
2022/10/17 07:34:16;;;;;;;6.57;4.73;;;13.50;92.00;;;;;;5036918;28;20175;-85
2022/10/17 07:36:42;;;;;;;9.73;4.23;;;13.40;92.00;;;;;;5036697;28;20180;-85
2022/10/17 07:39:08;;;;;;;5.17;4.67;;;13.50;92.10;;;;;;5018784;28;20184;-85
2022/10/17 07:41:33;;;;;;;12.87;5.33;;;13.60;92.10;;;;;;5018861;28;20200;-85
2022/10/17 07:43:59;;;;;;;6.27;4.70;;;13.70;92.10;;;;;;5036561;28;20173;-85
2022/10/17 07:46:25;;;;;;;8.90;4.93;;;13.80;92.10;;;;;;5018592;28;20177;-84
2022/10/17 07:48:50;;;;;;;8.10;4.63;;;13.80;92.10;;;;;;5018361;28;20206;-86
2022/10/17 07:51:17;;;;;;;6.77;5.07;;;13.90;92.10;;;;;;5018305;28;20209;-85
2022/10/17 07:53:43;;;;;;;5.23;4.73;;;14.20;92.20;;;;;;5036153;28;20227;-84
2022/10/17 07:56:09;;;;;;;8.47;5.10;;;14.20;92.00;;;;;;5018613;28;20263;-85
2022/10/17 07:58:36;;;;;;;7.73;4.33;;;14.30;91.90;;;;;;5036714;28;20176;-84
2022/10/17 08:01:07;;;;;;;12.70;4.20;;;14.30;91.80;;;;;;5018288;28;20227;-86
2022/10/17 08:03:33;;;;;;;9.95;4.57;;;14.30;91.70;;;;;;5036221;28;20169;-85
2022/10/17 08:06:00;;;;;;;6.30;4.73;;;14.30;91.60;;;;;;5018224;28;20188;-85
2022/10/17 08:08:27;;;;;;;10.97;4.90;;;14.40;91.60;;;;;;5036096;28;20172;-85
2022/10/17 08:11:00;;;;;;;4.90;4.40;;;14.30;91.50;;;;;;5035772;28;20216;-84
2022/10/17 08:13:25;;;;;;;8.07;4.70;;;14.40;91.40;;;;;;5017676;28;20238;-84
2022/10/17 08:15:51;;;;;;;9.05;4.70;;;14.50;91.50;;;;;;5017521;28;20612;-84
2022/10/17 08:18:17;;;;;;;7.45;4.45;;;14.50;91.40;;;;;;5017562;28;20173;-85
2022/10/17 08:20:42;;;;;;;10.65;4.15;;;14.60;91.30;;;;;;5017378;28;20280;-84
2022/10/17 08:23:08;;;;;;;7.07;4.95;;;14.60;91.30;;;;;;5035361;28;20177;-85
2022/10/17 08:25:37;;;;;;;8.60;4.28;;;14.60;91.30;;;;;;5017510;28;20169;-84
2022/10/17 08:28:02;;;;;;;4.93;4.22;;;14.70;91.30;;;;;;5035214;28;20180;-84
2022/10/17 08:30:29;;;;;;;10.93;6.03;;;14.70;91.10;;;;;;5017272;28;20254;-84
2022/10/17 08:32:55;;;;;;;12.85;6.68;;;14.80;91.20;;;;;;5035043;28;20193;-84
2022/10/17 08:35:21;;;;;;;29.92;13.75;;;14.70;91.00;;;;;;5017393;28;20215;-85
2022/10/17 08:37:47;;;;;;;22.77;12.60;;;14.80;91.10;;;;;;5035022;28;20177;-83
2022/10/17 08:40:19;;;;;;;25.83;13.20;;;14.80;91.10;;;;;;5035205;28;20172;-84
2022/10/17 08:43:21;;;;;;;25.33;9.50;;;14.90;91.00;;;;;;5035163;28;20153;-83
2022/10/17 08:45:53;;;;;;;21.15;11.35;;;15.00;91.10;;;;;;5018127;28;20176;-84
2022/10/17 08:48:23;;;;;;;9.55;6.47;;;15.00;91.10;;;;;;5017726;28;20519;-84
2022/10/17 08:50:58;;;;;;;9.10;5.90;;;15.10;91.10;;;;;;5034675;28;20717;-85
2022/10/17 08:53:34;;;;;;;13.80;7.70;;;15.20;91.20;;;;;;5035227;28;20157;-85
2022/10/17 08:56:12;;;;;;;10.95;6.55;;;15.30;91.30;;;;;;5017165;28;20214;-85
2022/10/17 08:58:38;;;;;;;11.68;7.20;;;15.30;91.20;;;;;;5016852;28;20165;-85
2022/10/17 09:01:31;;;;;;;12.60;7.22;;;15.40;91.20;;;;;;5016646;28;20709;-85
2022/10/17 09:04:05;;;;;;;9.75;5.78;;;15.50;91.20;;;;;;5017395;28;20175;-85
2022/10/17 09:06:37;;;;;;;11.23;6.15;;;15.60;91.20;;;;;;5017685;28;20532;-85
2022/10/17 09:09:44;;;;;;;18.05;10.75;;;15.70;91.10;;;;;;5017975;28;20183;-85
2022/10/17 09:12:12;;;;;;;9.57;5.35;;;15.80;91.30;;;;;;5008217;28;20724;-85
2022/10/17 09:15:00;;;;;;;11.77;5.68;;;16.00;91.20;;;;;;5017595;28;20207;-85
2022/10/17 09:17:48;;;;;;;8.05;5.57;;;16.10;91.00;;;;;;5035551;28;20161;-85
2022/10/17 09:20:25;;;;;;;5.07;4.60;;;16.20;90.70;;;;;;5016972;28;20207;-84
2022/10/17 09:22:59;;;;;;;9.43;5.53;;;16.30;90.60;;;;;;5034358;28;20176;-86
2022/10/17 09:25:26;;;;;;;8.20;5.03;;;16.40;90.50;;;;;;5016590;28;20229;-85
2022/10/17 09:27:58;;;;;;;5.32;4.80;;;16.60;90.40;;;;;;5034362;28;20188;-84
2022/10/17 09:30:43;;;;;;;8.38;5.20;;;16.60;90.10;;;;;;5016288;28;20196;-85
2022/10/17 09:33:16;;;;;;;6.53;5.20;;;16.80;90.10;;;;;;5016313;28;20169;-84
2022/10/17 09:35:43;;;;;;;6.07;5.10;;;17.00;89.90;;;;;;5016304;28;20279;-84
2022/10/17 09:38:17;;;;;;;7.43;5.00;;;17.30;89.40;;;;;;5016290;28;20264;-85
2022/10/17 09:40:44;;;;;;;9.82;5.40;;;17.40;89.20;;;;;;5016317;28;20210;-84
2022/10/17 09:43:14;;;;;;;5.25;4.80;;;17.50;88.60;;;;;;5015656;28;20597;-84
2022/10/17 09:45:45;;;;;;;6.63;4.63;;;17.70;88.40;;;;;;5016269;28;20177;-85
2022/10/17 09:48:27;;;;;;;11.07;4.50;;;17.80;87.80;;;;;;5033879;28;20207;-84
2022/10/17 09:50:53;;;;;;;6.35;4.20;;;18.00;87.30;;;;;;5033682;28;20200;-84
2022/10/17 09:53:24;;;;;;;5.15;4.00;;;18.00;87.00;;;;;;5016932;28;20665;-84
2022/10/17 09:55:54;;;;;;;8.85;3.83;;;18.10;87.00;;;;;;5016246;28;20175;-83
2022/10/17 09:58:21;;;;;;;9.60;3.92;;;18.20;86.20;;;;;;5015935;28;20172;-84
2022/10/17 10:00:47;;;;;;;7.85;4.32;;;18.30;86.10;;;;;;5033880;28;20205;-85
2022/10/17 10:03:21;;;;;;;8.13;4.40;;;18.30;86.00;;;;;;5016610;28;20213;-84
2022/10/17 10:06:11;;;;;;;5.03;3.70;;;18.30;85.90;;;;;;5016190;28;20169;-84
2022/10/17 10:08:49;;;;;;;5.05;4.15;;;18.30;85.90;;;;;;5033665;28;20223;-84
2022/10/17 10:11:14;;;;;;;6.45;4.22;;;18.40;85.60;;;;;;5033498;28;20686;-84
2022/10/17 10:13:48;;;;;;;7.82;3.70;;;18.50;85.50;;;;;;5015944;28;20187;-83
2022/10/17 10:16:31;;;;;;;6.43;4.38;;;18.50;85.20;;;;;;5033944;28;20157;-84
2022/10/17 10:18:57;;;;;;;6.32;3.90;;;18.60;85.10;;;;;;5016081;28;20169;-85
2022/10/17 10:21:25;;;;;;;8.13;3.58;;;18.70;85.00;;;;;;5033745;28;20200;-84
2022/10/17 10:24:10;;;;;;;6.05;4.03;;;18.70;84.80;;;;;;5015858;28;20260;-84
2022/10/17 10:26:46;;;;;;;8.23;4.00;;;18.80;84.80;;;;;;5015667;28;20545;-84
2022/10/17 10:29:31;;;;;;;5.45;4.13;;;18.80;84.70;;;;;;5033821;28;20161;-84
2022/10/17 10:32:20;;;;;;;11.20;4.10;;;18.80;84.10;;;;;;5015651;28;20212;-84
2022/10/17 10:34:53;;;;;;;14.00;5.10;;;18.80;84.60;;;;;;5033857;28;20169;-84
2022/10/17 10:37:43;;;;;;;6.65;4.05;;;18.80;84.50;;;;;;5033813;28;20157;-83
2022/10/17 10:40:17;;;;;;;10.65;3.80;;;18.80;84.40;;;;;;5033706;28;20160;-84
2022/10/17 10:42:49;;;;;;;5.03;4.45;;;18.80;84.60;;;;;;5034259;28;20172;-84
2022/10/17 10:45:39;;;;;;;9.63;4.18;;;18.80;84.70;;;;;;5033905;28;20157;-84
2022/10/17 10:48:25;;;;;;;5.72;4.07;;;18.80;84.70;;;;;;5015986;28;20662;-84
2022/10/17 10:51:11;;;;;;;9.68;4.40;;;18.70;84.40;;;;;;5033436;28;20583;-84
2022/10/17 10:54:09;;;;;;;7.57;4.22;;;18.70;84.60;;;;;;5015905;28;20613;-84
2022/10/17 10:56:43;;;;;;;7.55;4.13;;;18.70;84.70;;;;;;5036527;28;20234;-84
2022/10/17 10:59:34;;;;;;;6.70;4.38;;;18.70;84.80;;;;;;5037231;28;20151;-84
2022/10/17 11:02:20;;;;;;;11.55;4.97;;;18.60;84.90;;;;;;5019289;28;20311;-84
2022/10/17 11:04:54;;;;;;;7.82;4.10;;;18.60;85.00;;;;;;5019618;28;20221;-84
2022/10/17 11:07:21;;;;;;;6.03;4.25;;;18.70;84.90;;;;;;5019205;28;20187;-84
2022/10/17 11:10:05;;;;;;;6.85;4.22;;;18.70;84.70;;;;;;5019228;28;20256;-84
2022/10/17 11:12:59;;;;;;;9.93;4.50;;;18.80;84.90;;;;;;5036422;28;20200;-84
2022/10/17 11:15:35;;;;;;;8.15;4.38;;;18.80;84.80;;;;;;5028874;28;20193;-84
2022/10/17 11:18:09;;;;;;;7.45;4.68;;;18.80;85.00;;;;;;5036263;28;20180;-85
2022/10/17 11:20:45;;;;;;;5.22;4.18;;;18.90;84.80;;;;;;5018621;28;20208;-84
2022/10/17 11:23:38;;;;;;;10.38;3.95;;;18.90;84.70;;;;;;5019762;28;20283;-84
2022/10/17 11:26:09;;;;;;;11.70;4.90;;;19.00;84.80;;;;;;5036354;28;20161;-84
2022/10/17 11:28:35;;;;;;;12.13;4.85;;;19.10;85.00;;;;;;5018648;28;20189;-84
2022/10/17 11:31:06;;;;;;;7.68;3.95;;;19.00;84.70;;;;;;5036072;28;20232;-85
2022/10/17 11:33:58;;;;;;;9.43;4.68;;;19.00;84.30;;;;;;5036143;28;20180;-84
2022/10/17 11:36:29;;;;;;;6.18;4.38;;;19.00;84.40;;;;;;5018258;28;20693;-85
2022/10/17 11:39:26;;;;;;;8.55;4.88;;;19.00;84.40;;;;;;5018339;28;20165;-85
2022/10/17 11:42:00;;;;;;;6.30;4.43;;;19.00;84.30;;;;;;5017198;28;20212;-85
2022/10/17 11:44:38;;;;;;;8.40;4.72;;;19.00;84.30;;;;;;5018258;28;20167;-84
2022/10/17 11:47:34;;;;;;;7.78;3.90;;;19.00;84.50;;;;;;5036196;28;20168;-84
2022/10/17 11:50:15;;;;;;;11.45;4.75;;;19.00;84.30;;;;;;5036160;28;20161;-84
2022/10/17 11:52:47;;;;;;;11.38;4.82;;;19.00;84.40;;;;;;5018089;28;20165;-84
2022/10/17 11:55:16;;;;;;;11.15;5.10;;;19.00;84.20;;;;;;5035551;28;20186;-85
2022/10/17 11:57:54;;;;;;;10.18;4.63;;;19.00;84.20;;;;;;5017810;28;20179;-84
2022/10/17 12:00:31;;;;;;;7.07;4.93;;;19.00;83.60;;;;;;5017545;28;20627;-84
2022/10/17 12:03:06;;;;;;;6.43;4.65;;;18.90;83.60;;;;;;5017750;28;20259;-84
2022/10/17 12:05:37;;;;;;;5.07;4.60;;;18.90;83.90;;;;;;5017232;28;20195;-84
2022/10/17 12:08:36;;;;;;;8.57;5.55;;;18.80;83.70;;;;;;5035358;28;20173;-84
2022/10/17 12:11:05;;;;;;;12.35;5.50;;;18.80;83.90;;;;;;5017673;28;20331;-84
2022/10/17 12:13:31;;;;;;;15.70;5.63;;;18.70;84.60;;;;;;5035581;28;20157;-83
2022/10/17 12:16:17;;;;;;;18.00;7.13;;;18.50;85.80;;;;;;5017592;28;20184;-85
2022/10/17 12:18:42;;;;;;;24.60;10.43;;;18.20;87.60;;;;;;5017231;28;20176;-88
2022/10/17 12:21:08;;;;;;;20.70;9.70;;;17.80;89.20;;;;;;5017216;28;20568;-87
2022/10/17 12:23:35;;;;;;;23.52;9.85;;;17.60;90.40;;;;;;5017243;28;20266;-87
2022/10/17 12:26:09;;;;;;;17.05;9.82;;;17.50;91.00;;;;;;5017237;28;20181;-87
2022/10/17 12:28:46;;;;;;;18.73;9.52;;;17.40;91.50;;;;;;5017084;28;20679;-87
2022/10/17 12:31:24;;;;;;;16.52;10.07;;;17.30;91.90;;;;;;5017048;28;20216;-87
2022/10/17 12:33:49;;;;;;;12.88;9.73;;;17.30;92.10;;;;;;5017236;28;20160;-87
2022/10/17 12:36:21;;;;;;;13.68;10.38;;;17.30;92.20;;;;;;5017031;28;20172;-88
2022/10/17 12:38:47;;;;;;;12.75;9.98;;;17.30;92.30;;;;;;5017105;28;20635;-87
2022/10/17 12:41:13;;;;;;;17.17;10.80;;;17.30;92.40;;;;;;5016888;28;20205;-87
2022/10/17 12:43:50;;;;;;;14.55;10.80;;;17.20;92.60;;;;;;5034646;28;20176;-87
2022/10/17 12:46:43;;;;;;;15.48;11.90;;;17.20;92.80;;;;;;5034568;28;20173;-87
2022/10/17 12:49:41;;;;;;;13.43;11.35;;;17.10;93.10;;;;;;5016914;28;20618;-87
2022/10/17 12:52:31;;;;;;;14.10;11.43;;;17.10;93.20;;;;;;5016656;28;20213;-87
2022/10/17 12:55:03;;;;;;;19.48;12.13;;;17.10;93.40;;;;;;5016734;28;20550;-87
2022/10/17 12:57:52;;;;;;;20.00;11.85;;;17.00;93.60;;;;;;5016822;28;20172;-87
2022/10/17 13:00:24;;;;;;;19.23;12.65;;;17.00;93.90;;;;;;5016532;28;20172;-88
2022/10/17 13:02:53;;;;;;;18.33;13.63;;;16.90;94.20;;;;;;5017546;28;20164;-88